createdAt,value
2023-03-29T00:01:00.179Z,5.00
2023-03-29T00:03:30.640Z,4.63
2023-03-29T00:06:03.188Z,5.00
2023-03-29T00:08:33.999Z,4.53
2023-03-29T00:11:04.127Z,4.30
2023-03-29T00:13:32.658Z,5.32
2023-03-29T00:16:00.930Z,7.28
2023-03-29T00:18:29.202Z,5.18
2023-03-29T00:20:57.911Z,4.78
2023-03-29T00:23:26.617Z,5.20
2023-03-29T00:25:54.973Z,5.03
2023-03-29T00:28:24.737Z,5.30
2023-03-29T00:30:53.256Z,6.17
2023-03-29T00:33:22.854Z,5.47
2023-03-29T00:35:53.610Z,1.75
2023-03-29T00:38:21.903Z,3.88
2023-03-29T00:40:50.207Z,5.78
2023-03-29T00:43:18.435Z,5.82
2023-03-29T00:45:48.298Z,3.25
2023-03-29T00:48:18.668Z,4.22
2023-03-29T00:50:50.058Z,4.03
2023-03-29T00:53:21.463Z,4.68
2023-03-29T00:55:54.016Z,3.65
2023-03-29T00:58:26.391Z,4.22
2023-03-29T01:01:02.260Z,3.58
2023-03-29T01:03:35.410Z,3.92
2023-03-29T01:06:07.639Z,5.50
2023-03-29T01:08:38.718Z,4.47
2023-03-29T01:11:09.892Z,5.20
2023-03-29T01:13:40.994Z,3.60
2023-03-29T01:16:12.546Z,6.05
2023-03-29T01:18:41.933Z,5.32
2023-03-29T01:21:16.965Z,4.40
2023-03-29T01:24:18.157Z,3.53
2023-03-29T01:26:53.847Z,6.70
2023-03-29T01:29:26.742Z,5.25
2023-03-29T01:31:59.439Z,6.43
2023-03-29T01:34:34.468Z,3.65
2023-03-29T01:37:06.241Z,2.63
2023-03-29T01:39:35.057Z,4.85
2023-03-29T01:42:11.799Z,3.28
2023-03-29T01:44:48.874Z,4.28
2023-03-29T01:47:21.667Z,3.30
2023-03-29T01:49:54.594Z,4.20
2023-03-29T01:52:25.821Z,3.28
2023-03-29T01:54:55.997Z,3.40
2023-03-29T01:57:25.551Z,3.05
2023-03-29T01:59:57.642Z,2.17
2023-03-29T02:02:28.942Z,2.92
2023-03-29T02:04:59.390Z,2.42
2023-03-29T02:07:31.210Z,2.75
2023-03-29T02:10:00.162Z,3.40
2023-03-29T02:12:28.932Z,2.88
2023-03-29T02:15:00.773Z,2.67
2023-03-29T02:17:29.281Z,4.00
2023-03-29T02:20:00.823Z,8.10
2023-03-29T02:22:31.608Z,3.25
2023-03-29T02:25:00.520Z,2.40
2023-03-29T02:27:30.020Z,2.92
2023-03-29T02:29:59.902Z,3.30
2023-03-29T02:32:32.906Z,1.85
2023-03-29T02:35:04.541Z,2.22
2023-03-29T02:37:34.456Z,2.90
2023-03-29T02:40:07.977Z,5.88
2023-03-29T02:42:36.358Z,2.67
2023-03-29T02:45:07.979Z,2.40
2023-03-29T02:47:39.351Z,2.88
2023-03-29T02:50:08.861Z,4.30
2023-03-29T02:52:40.226Z,3.58
2023-03-29T02:55:11.492Z,4.10
2023-03-29T02:57:41.013Z,3.35
2023-03-29T03:00:14.678Z,4.88
2023-03-29T03:02:43.211Z,3.78
2023-03-29T03:05:11.557Z,3.88
2023-03-29T03:07:40.674Z,2.30
2023-03-29T03:10:10.114Z,2.55
2023-03-29T03:12:38.558Z,2.42
2023-03-29T03:15:07.750Z,4.53
2023-03-29T03:17:40.009Z,2.75
2023-03-29T03:20:12.737Z,5.20
2023-03-29T03:22:42.031Z,4.22
2023-03-29T03:25:13.232Z,2.80
2023-03-29T03:27:42.082Z,2.05
2023-03-29T03:30:11.461Z,2.67
2023-03-29T03:32:41.475Z,2.88
2023-03-29T03:35:11.709Z,2.25
2023-03-29T03:37:40.607Z,2.17
2023-03-29T03:40:11.613Z,2.42
2023-03-29T03:42:42.066Z,3.25
2023-03-29T03:45:12.280Z,2.08
2023-03-29T03:47:42.322Z,1.98
2023-03-29T03:50:11.607Z,2.55
2023-03-29T03:52:39.863Z,2.20
2023-03-29T03:55:09.330Z,1.80
2023-03-29T03:57:38.288Z,1.52
2023-03-29T04:00:19.270Z,2.80
2023-03-29T04:02:49.935Z,2.45
2023-03-29T04:05:18.464Z,1.33
2023-03-29T04:07:46.762Z,3.15
2023-03-29T04:10:15.769Z,1.80
2023-03-29T04:12:44.074Z,2.40
2023-03-29T04:15:12.970Z,1.73
2023-03-29T04:17:41.318Z,1.95
2023-03-29T04:20:12.837Z,1.98
2023-03-29T04:22:41.911Z,1.63
2023-03-29T04:25:11.671Z,2.10
2023-03-29T04:27:40.378Z,10.20
2023-03-29T04:30:09.886Z,1.20
2023-03-29T04:32:38.617Z,2.33
2023-03-29T04:35:08.003Z,4.03
2023-03-29T04:37:40.372Z,1.77
2023-03-29T04:40:09.996Z,3.13
2023-03-29T04:42:38.425Z,2.50
2023-03-29T04:45:07.932Z,2.47
2023-03-29T04:47:36.647Z,2.17
2023-03-29T04:50:05.279Z,1.60
2023-03-29T04:52:33.935Z,2.75
2023-03-29T04:55:05.885Z,1.83
2023-03-29T04:57:34.273Z,1.65
2023-03-29T05:00:02.893Z,1.60
2023-03-29T05:02:32.474Z,1.67
2023-03-29T05:05:00.816Z,1.35
2023-03-29T05:07:29.802Z,2.40
2023-03-29T05:09:58.129Z,1.55
2023-03-29T05:12:27.804Z,1.95
2023-03-29T05:14:56.905Z,1.67
2023-03-29T05:17:27.424Z,2.88
2023-03-29T05:22:24.522Z,2.58
2023-03-29T05:24:52.960Z,1.98
2023-03-29T05:27:22.809Z,1.70
2023-03-29T05:29:52.459Z,3.67
2023-03-29T05:32:20.716Z,4.60
2023-03-29T05:34:50.396Z,5.30
2023-03-29T05:37:18.873Z,7.57
2023-03-29T05:39:48.955Z,3.17
2023-03-29T05:42:22.416Z,2.63
2023-03-29T05:44:54.095Z,3.10
2023-03-29T05:47:23.938Z,2.85
2023-03-29T05:49:52.786Z,2.90
2023-03-29T05:52:21.208Z,5.47
2023-03-29T05:54:50.151Z,2.90
2023-03-29T05:57:18.476Z,3.63
2023-03-29T05:59:46.961Z,2.03
2023-03-29T06:02:16.879Z,2.72
2023-03-29T06:04:45.444Z,2.08
2023-03-29T06:07:14.800Z,2.58
2023-03-29T06:09:43.095Z,2.08
2023-03-29T06:12:12.208Z,2.60
2023-03-29T06:14:40.539Z,2.53
2023-03-29T06:17:08.865Z,2.58
2023-03-29T06:19:38.505Z,1.88
2023-03-29T06:22:06.791Z,3.67
2023-03-29T06:24:35.089Z,1.80
2023-03-29T06:27:03.410Z,1.83
2023-03-29T06:29:31.675Z,1.05
2023-03-29T06:32:00.259Z,3.30
2023-03-29T06:34:28.572Z,1.75
2023-03-29T06:36:58.294Z,2.97
2023-03-29T06:39:26.991Z,1.87
2023-03-29T06:41:55.544Z,2.40
2023-03-29T06:44:23.920Z,1.42
2023-03-29T06:46:52.386Z,3.92
2023-03-29T06:49:21.653Z,1.92
2023-03-29T06:51:49.932Z,4.65
2023-03-29T06:54:19.557Z,2.80
2023-03-29T06:56:48.387Z,1.80
2023-03-29T06:59:16.667Z,3.33
2023-03-29T07:01:45.069Z,3.47
2023-03-29T07:04:13.914Z,3.78
2023-03-29T07:06:48.267Z,2.80
2023-03-29T07:09:19.374Z,3.60
2023-03-29T07:11:50.438Z,3.17
2023-03-29T07:14:18.736Z,3.00
2023-03-29T07:16:47.467Z,1.17
2023-03-29T07:19:16.005Z,1.55
2023-03-29T07:21:44.283Z,1.70
2023-03-29T07:24:12.919Z,3.08
2023-03-29T07:26:52.267Z,1.35
2023-03-29T07:29:30.539Z,1.27
2023-03-29T07:31:59.117Z,2.15
2023-03-29T07:34:29.992Z,1.45
2023-03-29T07:36:59.320Z,0.77
2023-03-29T07:39:27.848Z,3.05
2023-03-29T07:41:58.263Z,2.78
2023-03-29T07:44:27.131Z,1.58
2023-03-29T07:46:58.174Z,1.40
2023-03-29T07:49:26.602Z,1.90
2023-03-29T07:51:55.460Z,3.88
2023-03-29T07:54:23.893Z,2.80
2023-03-29T07:56:52.195Z,1.63
2023-03-29T07:59:20.782Z,1.15
2023-03-29T08:01:49.053Z,1.08
2023-03-29T08:04:18.904Z,2.78
2023-03-29T08:06:47.327Z,1.00
2023-03-29T08:09:15.696Z,1.52
2023-03-29T08:11:43.970Z,2.03
2023-03-29T08:14:12.246Z,2.63
2023-03-29T08:16:40.794Z,1.27
2023-03-29T08:19:09.095Z,3.13
2023-03-29T08:21:38.745Z,1.92
2023-03-29T08:24:08.076Z,4.27
2023-03-29T08:26:36.399Z,5.25
2023-03-29T08:29:05.041Z,1.65
2023-03-29T08:31:33.636Z,3.55
2023-03-29T08:34:01.952Z,3.35
2023-03-29T08:36:30.489Z,1.05
2023-03-29T08:39:01.923Z,1.50
2023-03-29T08:41:37.971Z,4.45
2023-03-29T08:44:14.885Z,3.53
2023-03-29T08:46:49.023Z,4.53
2023-03-29T08:49:18.000Z,2.53
2023-03-29T08:51:47.243Z,2.85
2023-03-29T08:54:19.382Z,3.65
2023-03-29T08:56:47.943Z,2.15
2023-03-29T08:59:20.722Z,3.80
2023-03-29T09:01:50.403Z,2.97
2023-03-29T09:04:22.758Z,1.30
2023-03-29T09:06:51.266Z,0.95
2023-03-29T09:09:22.702Z,2.45
2023-03-29T09:12:02.804Z,2.08
2023-03-29T09:14:44.116Z,2.05
2023-03-29T09:17:21.467Z,1.85
2023-03-29T09:19:53.713Z,1.35
2023-03-29T09:22:25.348Z,2.17
2023-03-29T09:25:05.830Z,3.38
2023-03-29T09:27:36.574Z,2.75
2023-03-29T09:30:15.277Z,3.22
2023-03-29T09:32:50.004Z,1.65
2023-03-29T09:35:23.598Z,2.03
2023-03-29T09:37:53.527Z,2.17
2023-03-29T09:40:27.205Z,1.15
2023-03-29T09:42:56.149Z,4.50
2023-03-29T09:45:24.985Z,3.40
2023-03-29T09:47:57.041Z,1.20
2023-03-29T09:50:31.994Z,1.70
2023-03-29T09:53:01.003Z,2.50
2023-03-29T09:55:33.891Z,3.08
2023-03-29T09:58:04.182Z,1.30
2023-03-29T10:00:32.582Z,1.33
2023-03-29T10:03:01.029Z,2.00
2023-03-29T10:05:32.586Z,2.13
2023-03-29T10:08:02.226Z,2.30
2023-03-29T10:10:33.135Z,0.63
2023-03-29T10:13:05.472Z,1.65
2023-03-29T10:15:34.173Z,3.33
2023-03-29T10:18:04.215Z,4.65
2023-03-29T10:20:36.715Z,2.03
2023-03-29T10:23:07.926Z,2.58
2023-03-29T10:25:42.614Z,4.50
2023-03-29T10:28:14.759Z,1.67
2023-03-29T10:30:43.732Z,1.98
2023-03-29T10:33:18.049Z,2.78
2023-03-29T10:35:48.010Z,2.80
2023-03-29T10:38:18.674Z,1.05
2023-03-29T10:43:23.157Z,2.25
2023-03-29T10:45:52.792Z,0.98
2023-03-29T10:48:26.063Z,3.20
2023-03-29T10:50:54.462Z,2.45
2023-03-29T10:53:25.554Z,2.15
2023-03-29T10:56:07.629Z,0.95
2023-03-29T10:58:43.760Z,1.48
2023-03-29T11:01:17.820Z,2.30
2023-03-29T11:04:10.012Z,2.05
2023-03-29T11:06:42.030Z,1.75
2023-03-29T11:09:19.232Z,2.47
2023-03-29T11:12:15.544Z,1.73
2023-03-29T11:14:54.898Z,0.85
2023-03-29T11:17:33.301Z,1.40
2023-03-29T11:20:13.158Z,4.45
2023-03-29T11:22:47.539Z,1.23
2023-03-29T11:25:30.293Z,2.08
2023-03-29T11:28:02.835Z,1.58
2023-03-29T11:30:36.379Z,2.72
2023-03-29T11:33:10.602Z,1.30
2023-03-29T11:35:48.151Z,1.00
2023-03-29T11:38:24.332Z,5.75
2023-03-29T11:40:58.818Z,1.30
2023-03-29T11:43:32.310Z,2.20
2023-03-29T11:46:04.085Z,2.55
2023-03-29T11:48:36.586Z,1.08
2023-03-29T11:51:10.773Z,3.67
2023-03-29T11:53:47.376Z,2.72
2023-03-29T11:56:21.152Z,2.85
2023-03-29T11:58:56.174Z,1.30
2023-03-29T12:01:29.233Z,1.88
2023-03-29T12:04:01.127Z,3.22
2023-03-29T12:06:31.105Z,2.70
2023-03-29T12:09:03.947Z,3.45
2023-03-29T12:11:36.277Z,4.30
2023-03-29T12:14:08.632Z,1.65
2023-03-29T12:16:41.312Z,2.05
2023-03-29T12:19:17.153Z,1.90
2023-03-29T12:21:46.608Z,3.88
2023-03-29T12:24:17.158Z,1.33
2023-03-29T12:29:34.043Z,2.83
2023-03-29T12:32:15.174Z,2.03
2023-03-29T12:34:56.091Z,1.58
2023-03-29T12:37:32.205Z,3.50
2023-03-29T12:40:13.403Z,1.17
2023-03-29T12:42:46.679Z,1.70
2023-03-29T12:45:21.208Z,1.45
2023-03-29T12:47:52.043Z,1.17
2023-03-29T12:50:28.311Z,1.65
2023-03-29T12:53:04.351Z,1.80
2023-03-29T12:55:35.645Z,1.17
2023-03-29T12:58:06.606Z,2.63
2023-03-29T13:00:45.917Z,4.95
2023-03-29T13:03:22.610Z,2.15
2023-03-29T13:06:00.913Z,4.30
2023-03-29T13:08:35.707Z,1.98
2023-03-29T13:11:05.658Z,2.83
2023-03-29T13:13:36.198Z,1.20
2023-03-29T13:18:58.762Z,2.88
2023-03-29T13:21:33.846Z,2.97
2023-03-29T13:24:07.309Z,3.83
2023-03-29T13:26:51.070Z,2.30
2023-03-29T13:29:47.973Z,2.65
2023-03-29T13:32:27.297Z,0.98
2023-03-29T13:34:59.396Z,2.45
2023-03-29T13:37:36.668Z,2.33
2023-03-29T13:40:28.578Z,4.00
2023-03-29T13:42:59.069Z,1.88
2023-03-29T13:48:05.858Z,2.00
2023-03-29T13:50:37.944Z,3.22
2023-03-29T13:53:11.973Z,2.03
2023-03-29T13:55:45.941Z,1.95
2023-03-29T13:58:15.788Z,1.67
2023-03-29T14:00:47.307Z,1.35
2023-03-29T14:03:18.825Z,3.50
2023-03-29T14:05:50.696Z,2.22
2023-03-29T14:08:23.214Z,1.92
2023-03-29T14:10:51.743Z,2.05
2023-03-29T14:13:23.356Z,1.75
2023-03-29T14:15:54.294Z,2.60
2023-03-29T14:18:27.106Z,2.03
2023-03-29T14:20:56.667Z,1.75
2023-03-29T14:23:26.397Z,1.93
2023-03-29T14:25:54.688Z,1.80
2023-03-29T14:28:24.683Z,2.00
2023-03-29T14:30:53.688Z,4.22
2023-03-29T14:33:27.794Z,4.82
2023-03-29T14:35:56.912Z,3.90
2023-03-29T14:38:26.277Z,4.15
2023-03-29T14:40:59.231Z,3.20
2023-03-29T14:43:30.499Z,3.47
2023-03-29T14:45:59.595Z,2.38
2023-03-29T14:48:30.720Z,2.85
2023-03-29T14:50:59.084Z,2.95
2023-03-29T14:53:28.861Z,2.05
2023-03-29T14:55:57.389Z,5.28
2023-03-29T14:58:29.296Z,3.45
2023-03-29T15:00:57.781Z,4.40
2023-03-29T15:03:27.428Z,2.22
2023-03-29T15:05:59.623Z,2.53
2023-03-29T15:08:31.859Z,1.73
2023-03-29T15:11:00.674Z,2.22
2023-03-29T15:13:29.186Z,4.53
2023-03-29T15:15:59.357Z,1.35
2023-03-29T15:18:31.282Z,2.17
2023-03-29T15:21:01.873Z,3.35
2023-03-29T15:23:36.377Z,2.35
2023-03-29T15:26:14.848Z,3.63
2023-03-29T15:28:48.079Z,2.05
2023-03-29T15:31:18.726Z,1.55
2023-03-29T15:33:47.160Z,3.80
2023-03-29T15:36:17.076Z,3.38
2023-03-29T15:38:45.633Z,3.20
2023-03-29T15:41:15.420Z,2.40
2023-03-29T15:43:44.191Z,1.60
2023-03-29T15:46:14.150Z,4.25
2023-03-29T15:48:42.560Z,4.50
2023-03-29T15:51:12.404Z,3.15
2023-03-29T15:53:42.245Z,3.20
2023-03-29T15:56:13.359Z,1.05
2023-03-29T15:58:42.966Z,1.90
2023-03-29T16:01:23.632Z,3.00
2023-03-29T16:03:52.094Z,2.03
2023-03-29T16:06:22.322Z,2.88
2023-03-29T16:08:51.999Z,1.27
2023-03-29T16:11:20.276Z,1.47
2023-03-29T16:13:48.639Z,4.30
2023-03-29T16:16:17.075Z,1.15
2023-03-29T16:18:45.754Z,1.77
2023-03-29T16:21:15.758Z,2.28
2023-03-29T16:23:44.177Z,3.10
2023-03-29T16:26:14.785Z,2.75
2023-03-29T16:31:12.459Z,2.10
2023-03-29T16:33:41.064Z,2.45
2023-03-29T16:36:10.112Z,2.42
2023-03-29T16:38:38.461Z,1.88
2023-03-29T16:41:07.309Z,2.22
2023-03-29T16:43:38.701Z,3.03
2023-03-29T16:46:08.912Z,3.15
2023-03-29T16:48:37.672Z,3.28
2023-03-29T16:51:06.978Z,2.97
2023-03-29T16:53:35.622Z,2.55
2023-03-29T16:56:04.633Z,2.90
2023-03-29T16:58:33.195Z,2.30
2023-03-29T17:01:10.790Z,3.60
2023-03-29T17:03:39.790Z,3.03
2023-03-29T17:06:09.569Z,3.63
2023-03-29T17:08:38.430Z,1.27
2023-03-29T17:11:07.878Z,3.03
2023-03-29T17:13:37.640Z,4.18
2023-03-29T17:16:06.852Z,4.65
2023-03-29T17:18:37.782Z,5.82
2023-03-29T17:23:34.688Z,5.10
2023-03-29T17:26:03.111Z,5.45
2023-03-29T17:28:31.483Z,2.78
2023-03-29T17:30:59.773Z,4.05
2023-03-29T17:33:28.052Z,2.47
2023-03-29T17:35:57.717Z,3.80
2023-03-29T17:38:28.815Z,4.47
2023-03-29T17:40:57.294Z,3.58
2023-03-29T17:43:25.635Z,4.35
2023-03-29T17:45:54.080Z,4.68
2023-03-29T17:48:22.420Z,5.75
2023-03-29T17:50:50.692Z,4.20
2023-03-29T17:53:20.345Z,4.35
2023-03-29T17:55:48.652Z,4.43
2023-03-29T17:58:17.332Z,6.20
2023-03-29T18:00:45.639Z,4.25
2023-03-29T18:03:14.767Z,3.55
2023-03-29T18:05:43.082Z,4.55
2023-03-29T18:08:12.944Z,8.90
2023-03-29T18:10:43.132Z,5.35
2023-03-29T18:13:14.016Z,5.82
2023-03-29T18:15:44.070Z,3.88
2023-03-29T18:18:12.329Z,4.95
2023-03-29T18:20:40.662Z,4.35
2023-03-29T18:23:08.981Z,3.75
2023-03-29T18:25:38.621Z,6.85
2023-03-29T18:28:08.470Z,8.10
2023-03-29T18:30:36.940Z,4.45
2023-03-29T18:33:05.556Z,4.82
2023-03-29T18:35:34.473Z,3.40
2023-03-29T18:38:04.136Z,4.90
2023-03-29T18:40:32.419Z,5.63
2023-03-29T18:43:00.723Z,8.07
2023-03-29T18:45:30.683Z,5.82
2023-03-29T18:47:58.959Z,3.85
2023-03-29T18:50:27.658Z,6.55
2023-03-29T18:52:55.939Z,5.50
2023-03-29T18:55:24.234Z,4.60
2023-03-29T18:57:52.485Z,6.13
2023-03-29T19:00:20.911Z,7.40
2023-03-29T19:02:50.657Z,6.20
2023-03-29T19:05:19.148Z,4.15
2023-03-29T19:07:47.399Z,6.40
2023-03-29T19:10:15.663Z,6.93
2023-03-29T19:12:44.051Z,4.75
2023-03-29T19:15:13.755Z,5.93
2023-03-29T19:17:42.076Z,7.27
2023-03-29T19:20:12.920Z,5.43
2023-03-29T19:22:41.247Z,6.03
2023-03-29T19:25:10.583Z,9.13
2023-03-29T19:27:38.931Z,4.85
2023-03-29T19:30:09.132Z,6.72
2023-03-29T19:32:37.517Z,4.07
2023-03-29T19:35:06.999Z,7.07
2023-03-29T19:37:36.837Z,6.15
2023-03-29T19:40:07.095Z,6.82
2023-03-29T19:42:36.167Z,7.80
2023-03-29T19:45:05.301Z,6.15
2023-03-29T19:47:33.622Z,8.82
2023-03-29T19:50:02.152Z,6.05
2023-03-29T19:52:30.812Z,6.28
2023-03-29T19:55:00.406Z,8.20
2023-03-29T19:57:28.869Z,6.67
2023-03-29T19:59:57.350Z,8.68
2023-03-29T20:02:25.582Z,6.95
2023-03-29T20:04:55.085Z,10.13
2023-03-29T20:07:23.436Z,5.78
2023-03-29T20:09:51.711Z,4.22
2023-03-29T20:12:21.281Z,5.45
2023-03-29T20:14:49.591Z,3.78
2023-03-29T20:17:17.893Z,4.05
2023-03-29T20:19:46.198Z,8.30
2023-03-29T20:22:14.562Z,6.10
2023-03-29T20:24:42.810Z,4.70
2023-03-29T20:27:11.138Z,5.50
2023-03-29T20:29:40.725Z,7.22
2023-03-29T20:32:09.229Z,4.60
2023-03-29T20:34:37.591Z,6.95
2023-03-29T20:37:06.426Z,7.10
2023-03-29T20:39:34.805Z,5.50
2023-03-29T20:42:03.144Z,5.97
2023-03-29T20:44:33.514Z,4.68
2023-03-29T20:47:06.321Z,7.53
2023-03-29T20:49:38.063Z,4.55
2023-03-29T20:52:09.204Z,7.15
2023-03-29T20:54:38.876Z,7.57
2023-03-29T20:57:07.795Z,6.85
2023-03-29T20:59:36.165Z,8.27
2023-03-29T21:02:06.033Z,6.25
2023-03-29T21:04:34.302Z,8.02
2023-03-29T21:07:03.579Z,9.63
2023-03-29T21:09:36.728Z,7.78
2023-03-29T21:14:33.610Z,7.00
2023-03-29T21:17:02.133Z,10.23
2023-03-29T21:19:31.877Z,16.10
2023-03-29T21:22:00.128Z,12.10
2023-03-29T21:24:28.388Z,12.68
2023-03-29T21:26:56.634Z,9.13
2023-03-29T21:29:25.006Z,8.05
2023-03-29T21:31:53.291Z,10.90
2023-03-29T21:34:21.605Z,6.80
2023-03-29T21:36:51.413Z,9.35
2023-03-29T21:39:19.745Z,9.63
2023-03-29T21:41:48.075Z,7.15
2023-03-29T21:44:16.360Z,4.45
2023-03-29T21:46:44.699Z,7.90
2023-03-29T21:49:13.216Z,9.00
2023-03-29T21:51:41.469Z,9.38
2023-03-29T21:54:11.842Z,10.02
2023-03-29T21:56:40.221Z,5.13
2023-03-29T21:59:08.471Z,6.18
2023-03-29T22:01:36.829Z,6.53
2023-03-29T22:04:05.202Z,7.50
2023-03-29T22:06:33.560Z,6.47
2023-03-29T22:09:03.125Z,5.88
2023-03-29T22:11:34.625Z,6.93
2023-03-29T22:14:04.147Z,6.70
2023-03-29T22:16:32.579Z,9.30
2023-03-29T22:19:00.912Z,6.10
2023-03-29T22:21:31.163Z,6.60
2023-03-29T22:24:01.303Z,6.43
2023-03-29T22:26:32.302Z,5.60
2023-03-29T22:29:01.440Z,11.18
2023-03-29T22:31:30.413Z,8.07
2023-03-29T22:34:00.653Z,6.47
2023-03-29T22:36:30.667Z,9.85
2023-03-29T22:38:59.262Z,7.03
2023-03-29T22:41:28.767Z,8.48
2023-03-29T22:44:00.942Z,8.73
2023-03-29T22:46:29.416Z,10.73
2023-03-29T22:48:57.782Z,7.38
2023-03-29T22:51:26.227Z,7.13
2023-03-29T22:53:54.525Z,4.22
2023-03-29T22:56:23.295Z,5.78
2023-03-29T22:58:51.656Z,6.80
2023-03-29T23:01:22.374Z,8.27
2023-03-29T23:03:50.977Z,7.13
2023-03-29T23:06:19.266Z,6.40
2023-03-29T23:08:47.597Z,8.98
2023-03-29T23:11:15.864Z,5.40
2023-03-29T23:13:44.094Z,7.28
2023-03-29T23:16:12.511Z,7.55
2023-03-29T23:18:42.244Z,8.75
2023-03-29T23:21:10.536Z,4.90
2023-03-29T23:23:38.985Z,11.35
2023-03-29T23:26:08.438Z,10.35
2023-03-29T23:28:36.767Z,4.47
2023-03-29T23:31:06.792Z,8.18
2023-03-29T23:33:36.467Z,9.50
2023-03-29T23:36:08.880Z,7.75
2023-03-29T23:38:38.883Z,5.50
2023-03-29T23:41:08.648Z,5.28
2023-03-29T23:43:40.540Z,6.35
2023-03-29T23:46:10.689Z,14.90
2023-03-29T23:48:39.500Z,9.55
2023-03-29T23:51:09.841Z,10.85
2023-03-29T23:53:38.261Z,6.38
2023-03-29T23:56:07.676Z,9.63
2023-03-29T23:58:37.319Z,6.15
